createdAt,value
2018-05-16T00:03:03.048Z,95228
2018-05-16T00:08:31.946Z,95222
2018-05-16T00:14:00.098Z,95218
2018-05-16T00:19:28.234Z,95218
2018-05-16T00:24:57.133Z,95224
2018-05-16T00:30:25.267Z,95216
2018-05-16T00:35:53.390Z,95218
2018-05-16T00:41:21.548Z,95212
2018-05-16T00:46:49.675Z,95210
2018-05-16T00:52:18.796Z,95204
2018-05-16T00:57:47.707Z,95213
2018-05-16T01:03:15.854Z,95208
2018-05-16T01:08:44.785Z,95202
2018-05-16T01:14:13.693Z,95196
2018-05-16T01:19:41.894Z,95197
2018-05-16T01:25:10.100Z,95203
2018-05-16T01:30:38.525Z,95195
2018-05-16T01:36:06.719Z,95194
2018-05-16T01:41:34.893Z,95204
2018-05-16T01:47:04.088Z,95202
2018-05-16T01:52:33.214Z,95204
2018-05-16T01:58:02.149Z,95198
2018-05-16T02:03:30.305Z,95197
2018-05-16T02:08:58.426Z,95195
2018-05-16T02:14:26.543Z,95190
2018-05-16T02:19:54.700Z,95192
2018-05-16T02:25:22.852Z,95193
2018-05-16T02:30:51.773Z,95189
2018-05-16T02:36:19.922Z,95186
2018-05-16T02:41:48.086Z,95183
2018-05-16T02:47:16.248Z,95193
2018-05-16T02:52:45.156Z,95190
2018-05-16T02:58:13.302Z,95185
2018-05-16T03:03:41.484Z,95184
2018-05-16T03:09:09.746Z,95183
2018-05-16T03:14:38.579Z,95180
2018-05-16T03:20:07.518Z,95180
2018-05-16T03:25:36.489Z,95175
2018-05-16T03:31:05.638Z,95177
2018-05-16T03:36:33.816Z,95181
2018-05-16T03:42:02.728Z,95176
2018-05-16T03:47:30.872Z,95180
2018-05-16T03:52:59.817Z,95176
2018-05-16T03:58:46.726Z,95182
2018-05-16T04:04:17.902Z,95182
2018-05-16T04:09:47.156Z,95185
2018-05-16T04:15:16.070Z,95185
2018-05-16T04:20:44.208Z,95185
2018-05-16T04:26:13.139Z,95183
2018-05-16T04:31:41.364Z,95182
2018-05-16T04:37:09.577Z,95202
2018-05-16T04:42:37.809Z,95190
2018-05-16T04:48:06.024Z,95189
2018-05-16T04:53:34.213Z,95201
2018-05-16T04:59:03.159Z,95191
2018-05-16T05:04:31.332Z,95195
2018-05-16T05:09:59.504Z,95207
2018-05-16T05:15:27.647Z,95208
2018-05-16T05:20:55.824Z,95211
2018-05-16T05:26:24.000Z,95206
2018-05-16T05:31:52.156Z,95212
2018-05-16T05:37:20.309Z,95216
2018-05-16T05:42:48.470Z,95219
2018-05-16T05:48:16.633Z,95224
2018-05-16T05:53:45.540Z,95218
2018-05-16T05:59:13.736Z,95232
2018-05-16T06:04:41.972Z,95224
2018-05-16T06:10:10.140Z,95224
2018-05-16T06:15:39.145Z,95222
2018-05-16T06:21:07.305Z,95239
2018-05-16T06:26:36.266Z,95234
2018-05-16T06:32:04.443Z,95230
2018-05-16T06:37:32.610Z,95241
2018-05-16T06:43:00.761Z,95236
2018-05-16T06:48:28.923Z,95243
2018-05-16T06:53:57.852Z,95236
2018-05-16T06:59:26.786Z,95242
2018-05-16T07:04:55.717Z,95242
2018-05-16T07:10:23.868Z,95250
2018-05-16T07:15:52.038Z,95251
2018-05-16T07:21:20.196Z,95246
2018-05-16T07:26:49.117Z,95238
2018-05-16T07:32:17.275Z,95246
2018-05-16T07:37:46.405Z,95244
2018-05-16T07:43:14.581Z,95255
2018-05-16T07:48:42.777Z,95257
2018-05-16T07:54:10.961Z,95252
2018-05-16T07:59:39.172Z,95259
2018-05-16T08:05:08.156Z,95258
2018-05-16T08:10:36.341Z,95256
2018-05-16T08:16:05.298Z,95260
2018-05-16T08:21:33.488Z,95258
2018-05-16T08:27:01.655Z,95259
2018-05-16T08:32:29.811Z,95261
2018-05-16T08:37:57.960Z,95262
2018-05-16T08:43:26.121Z,95261
2018-05-16T08:48:54.439Z,95271
2018-05-16T08:54:22.586Z,95273
2018-05-16T08:59:50.742Z,95276
2018-05-16T09:05:19.669Z,95278
2018-05-16T09:10:48.576Z,95275
2018-05-16T09:16:16.734Z,95277
2018-05-16T09:21:44.880Z,95284
2018-05-16T09:27:13.037Z,95283
2018-05-16T09:32:41.195Z,95284
2018-05-16T09:38:09.394Z,95286
2018-05-16T09:43:38.349Z,95284
2018-05-16T09:49:07.294Z,95276
2018-05-16T09:54:35.482Z,95282
2018-05-16T10:00:03.667Z,95289
2018-05-16T10:05:31.796Z,95288
2018-05-16T10:10:59.971Z,95293
2018-05-16T10:16:28.880Z,95296
2018-05-16T10:21:57.008Z,95292
2018-05-16T10:27:25.151Z,95306
2018-05-16T10:32:53.300Z,95311
2018-05-16T10:38:21.441Z,95316
2018-05-16T10:43:49.574Z,95313
2018-05-16T10:49:18.497Z,95310
2018-05-16T10:54:46.648Z,95316
2018-05-16T11:00:14.789Z,95308
2018-05-16T11:05:42.942Z,95301
2018-05-16T11:11:11.151Z,95300
2018-05-16T11:16:39.369Z,95304
2018-05-16T11:22:07.547Z,95300
2018-05-16T11:27:36.478Z,95305
2018-05-16T11:33:04.673Z,95316
2018-05-16T11:38:32.857Z,95316
2018-05-16T11:44:01.762Z,95313
2018-05-16T11:49:29.907Z,95316
2018-05-16T11:54:58.051Z,95307
2018-05-16T12:00:26.221Z,95319
2018-05-16T12:05:56.108Z,95321
2018-05-16T12:11:24.238Z,95313
2018-05-16T12:16:52.383Z,95316
2018-05-16T12:22:20.562Z,95325
2018-05-16T12:27:48.688Z,95322
2018-05-16T12:33:16.849Z,95317
2018-05-16T12:38:45.001Z,95313
2018-05-16T12:44:13.918Z,95304
2018-05-16T12:49:42.082Z,95309
2018-05-16T12:55:10.243Z,95305
2018-05-16T13:00:38.626Z,95308
2018-05-16T13:06:06.992Z,95311
2018-05-16T13:11:38.658Z,95321
2018-05-16T13:17:06.857Z,95322
2018-05-16T13:22:35.867Z,95315
2018-05-16T13:28:03.965Z,95330
2018-05-16T13:33:32.144Z,95316
2018-05-16T13:39:00.303Z,95323
2018-05-16T13:44:28.465Z,95329
2018-05-16T13:49:57.377Z,95322
2018-05-16T13:55:25.869Z,95331
2018-05-16T14:00:54.015Z,95325
2018-05-16T14:06:22.249Z,95331
2018-05-16T14:11:50.328Z,95339
2018-05-16T14:17:18.454Z,95346
2018-05-16T14:22:46.601Z,95343
2018-05-16T14:28:14.749Z,95337
2018-05-16T14:33:43.658Z,95342
2018-05-16T14:39:11.811Z,95344
2018-05-16T14:44:40.792Z,95336
2018-05-16T14:50:09.078Z,95345
2018-05-16T14:55:37.262Z,95341
2018-05-16T15:01:06.225Z,95343
2018-05-16T15:06:34.447Z,95340
2018-05-16T15:12:03.394Z,95344
2018-05-16T15:17:32.291Z,95344
2018-05-16T15:23:00.443Z,95344
2018-05-16T15:28:29.332Z,95341
2018-05-16T15:33:57.494Z,95340
2018-05-16T15:39:25.672Z,95338
2018-05-16T15:44:53.804Z,95342
2018-05-16T15:50:21.959Z,95336
2018-05-16T15:55:50.856Z,95343
2018-05-16T16:01:19.008Z,95336
2018-05-16T16:06:47.922Z,95336
2018-05-16T16:12:16.107Z,95334
2018-05-16T16:17:44.278Z,95336
2018-05-16T16:23:12.444Z,95352
2018-05-16T16:28:41.070Z,95373
2018-05-16T16:34:09.261Z,95383
2018-05-16T16:39:38.223Z,95371
2018-05-16T16:45:06.515Z,95369
2018-05-16T16:50:35.557Z,95365
2018-05-16T16:56:04.522Z,95359
2018-05-16T17:01:32.738Z,95359
2018-05-16T17:07:00.877Z,95366
2018-05-16T17:12:29.976Z,95362
2018-05-16T17:17:58.117Z,95358
2018-05-16T17:23:27.058Z,95370
2018-05-16T17:28:55.210Z,95378
2018-05-16T17:34:24.308Z,95381
2018-05-16T17:39:55.538Z,95383
2018-05-16T17:45:24.849Z,95385
2018-05-16T17:50:53.215Z,95392
2018-05-16T17:56:21.450Z,95394
2018-05-16T18:01:51.554Z,95400
2018-05-16T18:07:21.410Z,95398
2018-05-16T18:18:58.402Z,95400
2018-05-16T18:24:27.312Z,95395
2018-05-16T18:29:55.469Z,95395
2018-05-16T18:35:24.398Z,95401
2018-05-16T18:40:53.292Z,95403
2018-05-16T18:46:22.357Z,95413
2018-05-16T18:51:51.558Z,95419
2018-05-16T18:57:19.775Z,95414
2018-05-16T19:02:47.933Z,95413
2018-05-16T19:08:16.117Z,95423
2018-05-16T19:13:44.399Z,95440
2018-05-16T19:19:13.442Z,95435
2018-05-16T19:24:42.476Z,95439
2018-05-16T19:30:11.531Z,95434
2018-05-16T19:35:40.613Z,95425
2018-05-16T19:41:09.103Z,95443
2018-05-16T19:46:37.537Z,95434
2018-05-16T19:52:06.525Z,95429
2018-05-16T19:57:34.753Z,95422
2018-05-16T20:03:02.911Z,95424
2018-05-16T20:08:37.212Z,95431
2018-05-16T20:14:05.484Z,95437
2018-05-16T20:19:34.557Z,95441
2018-05-16T20:25:06.274Z,95460
2018-05-16T20:30:34.530Z,95453
2018-05-16T20:36:02.702Z,95461
2018-05-16T20:41:31.903Z,95461
2018-05-16T20:47:00.075Z,95453
2018-05-16T20:52:28.259Z,95465
2018-05-16T20:57:57.195Z,95471
2018-05-16T21:03:27.837Z,95472
2018-05-16T21:08:56.008Z,95470
2018-05-16T21:14:24.296Z,95463
2018-05-16T21:19:52.467Z,95470
2018-05-16T21:25:21.592Z,95473
2018-05-16T21:30:50.529Z,95476
2018-05-16T21:36:19.468Z,95473
2018-05-16T21:41:48.376Z,95467
2018-05-16T21:47:29.540Z,95466
2018-05-16T21:52:57.685Z,95469
2018-05-16T21:58:25.862Z,95465
2018-05-16T22:03:54.798Z,95483
2018-05-16T22:09:23.727Z,95485
2018-05-16T22:14:51.905Z,95487
2018-05-16T22:20:20.079Z,95492
2018-05-16T22:25:50.965Z,95487
2018-05-16T22:31:25.628Z,95483
2018-05-16T22:36:59.291Z,95482
2018-05-16T22:42:29.584Z,95484
2018-05-16T22:47:58.881Z,95489
2018-05-16T22:53:27.046Z,95485
2018-05-16T22:58:55.174Z,95486
2018-05-16T23:04:24.293Z,95486
2018-05-16T23:09:53.203Z,95481
2018-05-16T23:15:21.376Z,95478
2018-05-16T23:20:49.506Z,95477
2018-05-16T23:26:18.612Z,95472
2018-05-16T23:31:47.521Z,95479
2018-05-16T23:37:15.677Z,95490
2018-05-16T23:42:44.593Z,95485
2018-05-16T23:48:12.741Z,95492
2018-05-16T23:53:40.937Z,95486
2018-05-16T23:59:09.930Z,95496
